Time;durP1;ratioP1;P1;durP2;ratioP2;P2;SDS_P1;SDS_P2;PMS_P1;PMS_P2;Temp;Humidity;BMP_temperature;BMP_pressure;BME280_temperature;BME280_humidity;BME280_pressure;Samples;Min_cycle;Max_cycle;Signal;HPM_P1;HPM_P2
2022/03/07 00:01:13;;;;;;;14.55;11.23;;;;;;;1.99;58.52;102633.81;5094929;28;20046;-70
2022/03/07 00:03:39;;;;;;;14.73;11.25;;;;;;;1.93;58.41;102638.19;5095961;28;20031;-70
2022/03/07 00:06:07;;;;;;;13.60;10.93;;;;;;;1.83;59.34;102631.19;5077760;28;20034;-70
2022/03/07 00:08:33;;;;;;;13.93;11.80;;;;;;;1.77;58.92;102619.78;5060161;28;20032;-70
2022/03/07 00:11:02;;;;;;;17.17;12.13;;;;;;;1.80;59.02;102637.28;5075264;28;20028;-70
2022/03/07 00:13:27;;;;;;;14.57;11.55;;;;;;;1.79;59.44;102630.28;5082063;28;20020;-70
2022/03/07 00:15:53;;;;;;;13.90;11.57;;;;;;;1.67;59.61;102620.63;5107430;28;20031;-70
2022/03/07 00:18:19;;;;;;;17.63;12.43;;;;;;;1.65;59.75;102629.34;5094623;28;20022;-70
2022/03/07 00:20:44;;;;;;;13.00;11.52;;;;;;;1.56;59.61;102623.25;5107143;28;20031;-70
2022/03/07 00:23:12;;;;;;;14.63;12.05;;;;;;;1.62;60.25;102634.59;5101948;28;20081;-70
2022/03/07 00:25:38;;;;;;;13.37;11.40;;;;;;;1.67;59.93;102627.63;5104103;28;20027;-70
2022/03/07 00:28:05;;;;;;;13.47;11.80;;;;;;;1.56;59.43;102623.25;5111465;28;20036;-70
2022/03/07 00:30:30;;;;;;;14.10;12.57;;;;;;;1.57;60.13;102624.97;5100971;28;20028;-70
2022/03/07 00:32:56;;;;;;;14.98;11.80;;;;;;;1.57;59.67;102627.59;5098236;28;20027;-70
2022/03/07 00:35:22;;;;;;;18.73;12.07;;;;;;;1.47;59.75;102623.22;5088468;28;20455;-70
2022/03/07 00:37:48;;;;;;;14.43;12.53;;;;;;;1.37;59.95;102631.91;5107321;28;20086;-70
2022/03/07 00:40:13;;;;;;;13.27;11.73;;;;;;;1.45;60.33;102631.94;5096086;28;20059;-70
2022/03/07 00:42:39;;;;;;;16.02;12.48;;;;;;;1.34;60.32;102639.75;5101149;28;20142;-70
2022/03/07 00:45:09;;;;;;;13.70;12.00;;;;;;;1.38;60.46;102638.88;5090334;28;20531;-70
2022/03/07 00:47:35;;;;;;;14.43;12.03;;;;;;;1.36;60.46;102632.78;5104025;28;20028;-70
2022/03/07 00:50:05;;;;;;;15.88;12.20;;;;;;;1.35;60.23;102638.88;5082656;28;20478;-69
2022/03/07 00:52:30;;;;;;;18.20;13.15;;;;;;;1.22;61.29;102637.09;5111117;28;20027;-70
2022/03/07 00:54:56;;;;;;;13.45;11.98;;;;;;;1.24;60.45;102631.00;5080115;28;20098;-70
2022/03/07 00:57:24;;;;;;;15.67;12.70;;;;;;;1.25;60.72;102634.47;5075211;28;20028;-70
2022/03/07 00:59:50;;;;;;;12.82;11.50;;;;;;;1.29;59.82;102629.25;5092313;28;20036;-70
2022/03/07 01:02:15;;;;;;;16.00;12.35;;;;;;;1.26;60.38;102642.34;5092598;28;20113;-70
2022/03/07 01:04:41;;;;;;;15.75;12.00;;;;;;;1.16;60.77;102643.16;5089523;28;20418;-70
2022/03/07 01:07:09;;;;;;;17.37;12.30;;;;;;;1.23;60.98;102642.31;5099432;28;20044;-70
2022/03/07 01:09:36;;;;;;;14.60;11.87;;;;;;;1.17;60.48;102644.03;5076671;28;20364;-70
2022/03/07 01:12:02;;;;;;;14.32;12.10;;;;;;;1.26;60.85;102642.34;5108546;28;20028;-70
2022/03/07 01:14:28;;;;;;;14.07;12.60;;;;;;;1.03;61.77;102623.00;5089955;28;20070;-70
2022/03/07 01:16:54;;;;;;;16.60;12.77;;;;;;;1.07;61.56;102648.38;5102778;28;20055;-69
2022/03/07 01:19:19;;;;;;;16.08;12.45;;;;;;;1.14;61.46;102652.75;5091156;28;20034;-70
2022/03/07 01:21:46;;;;;;;15.97;12.23;;;;;;;1.05;61.96;102643.09;5102260;28;20016;-70
2022/03/07 01:24:11;;;;;;;16.13;12.43;;;;;;;0.99;62.11;102631.72;5076353;28;20190;-70
2022/03/07 01:26:40;;;;;;;15.10;12.97;;;;;;;0.98;62.47;102643.94;5080725;28;20403;-70
2022/03/07 01:29:06;;;;;;;14.98;12.73;;;;;;;1.01;61.94;102640.47;5110114;28;20035;-70
2022/03/07 01:31:33;;;;;;;17.73;12.27;;;;;;;1.02;61.81;102642.22;5067445;28;20027;-70
2022/03/07 01:33:59;;;;;;;21.25;13.25;;;;;;;0.99;61.87;102636.97;5076865;28;20081;-70
2022/03/07 01:36:25;;;;;;;16.75;12.55;;;;;;;0.86;61.82;102625.56;5068537;28;20027;-70
2022/03/07 01:38:50;;;;;;;14.43;12.17;;;;;;;0.82;61.97;102622.00;5102764;28;20034;-70
2022/03/07 01:41:16;;;;;;;15.23;12.03;;;;;;;0.93;60.93;102640.41;5087351;28;20059;-70
2022/03/07 01:43:41;;;;;;;15.63;12.50;;;;;;;0.81;61.91;102633.38;5096384;28;20028;-70
2022/03/07 01:46:09;;;;;;;18.80;13.80;;;;;;;0.78;61.90;102638.59;5098043;28;20089;-70
2022/03/07 01:48:35;;;;;;;16.87;13.17;;;;;;;0.71;62.96;102641.16;5093643;28;20166;-70
2022/03/07 01:51:01;;;;;;;15.90;13.30;;;;;;;0.59;63.20;102634.97;5114268;28;20020;-70
2022/03/07 01:53:27;;;;;;;15.70;12.97;;;;;;;0.66;62.70;102642.00;5092127;28;20026;-70
2022/03/07 01:55:54;;;;;;;14.53;13.07;;;;;;;0.58;62.79;102638.44;5096303;28;20138;-70
2022/03/07 01:58:24;;;;;;;14.27;12.33;;;;;;;0.55;62.99;102625.34;5101432;28;20024;-70
2022/03/07 02:00:49;;;;;;;19.17;13.20;;;;;;;0.57;62.55;102634.09;5083880;28;20020;-70
2022/03/07 02:03:15;;;;;;;14.60;12.80;;;;;;;0.65;62.55;102627.16;5104392;28;20022;-70
2022/03/07 02:05:41;;;;;;;16.03;13.10;;;;;;;0.59;62.51;102627.13;5099765;28;20107;-70
2022/03/07 02:08:07;;;;;;;16.92;12.48;;;;;;;0.62;62.89;102629.75;5099582;28;20020;-70
2022/03/07 02:10:33;;;;;;;16.40;12.97;;;;;;;0.55;62.80;102625.34;5111076;28;20031;-71
2022/03/07 02:12:59;;;;;;;14.07;12.57;;;;;;;0.57;62.38;102621.00;5107506;28;20030;-70
2022/03/07 02:15:24;;;;;;;14.27;11.60;;;;;;;0.53;62.49;102621.84;5091277;28;20019;-70
2022/03/07 02:17:50;;;;;;;14.87;12.13;;;;;;;0.52;62.16;102620.06;5088539;28;20064;-70
2022/03/07 02:20:18;;;;;;;13.53;12.07;;;;;;;0.39;62.90;102618.25;5092585;28;20453;-70
2022/03/07 02:22:51;;;;;;;16.07;12.80;;;;;;;0.48;63.27;102627.91;5063340;28;20032;-70
2022/03/07 02:25:16;;;;;;;13.53;12.10;;;;;;;0.42;62.84;102615.66;5079593;28;20032;-70
2022/03/07 02:27:42;;;;;;;18.03;12.20;;;;;;;0.49;62.05;102619.19;5062160;28;20035;-70
2022/03/07 02:30:09;;;;;;;15.23;12.37;;;;;;;0.41;63.51;102621.72;5096288;28;20073;-70
2022/03/07 02:32:34;;;;;;;15.90;12.97;;;;;;;0.31;63.42;102609.47;5078795;28;20043;-70
2022/03/07 02:35:02;;;;;;;15.80;13.13;;;;;;;0.19;63.58;102616.34;5105077;28;20424;-70
2022/03/07 02:37:28;;;;;;;15.07;12.27;;;;;;;0.22;63.84;102613.75;5096724;28;20028;-70
2022/03/07 02:39:53;;;;;;;14.57;12.90;;;;;;;0.21;64.08;102613.75;5088499;28;20087;-70
2022/03/07 02:42:18;;;;;;;14.43;12.93;;;;;;;0.23;64.14;102619.84;5085459;28;20032;-70
2022/03/07 02:44:44;;;;;;;15.03;13.37;;;;;;;0.20;64.63;102618.06;5079430;28;20850;-70
2022/03/07 02:47:17;;;;;;;14.80;13.30;;;;;;;0.18;64.51;102611.97;5076729;28;20107;-70
2022/03/07 02:49:43;;;;;;;14.43;12.90;;;;;;;0.08;64.39;102615.38;5104383;28;20478;-70
2022/03/07 02:52:08;;;;;;;15.23;13.37;;;;;;;0.10;64.38;102604.94;5094775;28;20049;-70
2022/03/07 02:54:34;;;;;;;18.20;13.27;;;;;;;0.12;64.81;102619.78;5098104;28;20047;-69
2022/03/07 02:57:00;;;;;;;15.17;12.77;;;;;;;0.09;64.59;102613.63;5095416;28;20450;-70
2022/03/07 02:59:25;;;;;;;17.20;13.80;;;;;;;0.12;65.21;102608.41;5093424;28;20126;-70
2022/03/07 03:01:51;;;;;;;16.90;13.57;;;;;;;0.08;64.59;102602.28;5091778;28;20034;-70
2022/03/07 03:04:17;;;;;;;15.07;13.37;;;;;;;0.07;64.58;102608.38;5107237;28;20024;-69
2022/03/07 03:06:45;;;;;;;14.47;13.07;;;;;;;0.03;64.19;102611.84;5111498;28;20107;-70
2022/03/07 03:09:11;;;;;;;15.33;13.37;;;;;;;0.01;64.47;102586.53;5084712;28;20038;-70
2022/03/07 03:11:36;;;;;;;16.20;13.07;;;;;;;-0.02;64.89;102606.56;5059785;28;20111;-70
2022/03/07 03:14:03;;;;;;;16.70;13.23;;;;;;;0.10;64.67;102615.38;5080072;28;20027;-70
2022/03/07 03:16:28;;;;;;;14.87;13.13;;;;;;;0.08;64.56;102617.97;5084360;28;20073;-70
2022/03/07 03:18:54;;;;;;;17.57;14.00;;;;;;;0.11;65.34;102601.44;5096883;28;20034;-70
2022/03/07 03:21:20;;;;;;;17.50;14.30;;;;;;;0.10;65.41;102607.53;5079557;28;20371;-70
2022/03/07 03:23:47;;;;;;;16.87;13.40;;;;;;;0.10;65.73;102605.81;5104006;28;20032;-70
2022/03/07 03:26:13;;;;;;;14.60;13.13;;;;;;;-0.03;65.64;102617.91;5101494;28;20035;-70
2022/03/07 03:28:39;;;;;;;18.67;14.13;;;;;;;0.03;66.43;102610.94;5076815;28;20038;-70
2022/03/07 03:31:04;;;;;;;17.47;14.37;;;;;;;0.10;65.71;102615.38;5093337;28;20020;-69
2022/03/07 03:33:30;;;;;;;17.00;13.80;;;;;;;-0.03;65.30;102617.91;5089759;28;20019;-70
2022/03/07 03:35:55;;;;;;;15.53;13.83;;;;;;;-0.10;66.26;102617.81;5100905;28;20020;-70
2022/03/07 03:38:21;;;;;;;15.83;13.90;;;;;;;-0.10;65.70;102613.44;5088821;28;20046;-70
2022/03/07 03:40:46;;;;;;;17.37;14.27;;;;;;;-0.17;66.35;102619.50;5077271;28;20035;-69
2022/03/07 03:43:12;;;;;;;16.70;14.20;;;;;;;-0.15;66.75;102617.75;5095481;28;20463;-70
2022/03/07 03:45:37;;;;;;;18.83;14.23;;;;;;;-0.14;66.39;102624.75;5104303;28;20103;-70
2022/03/07 03:48:04;;;;;;;24.17;15.03;;;;;;;-0.18;66.61;102620.34;5082116;28;20023;-70
2022/03/07 03:50:30;;;;;;;18.90;15.17;;;;;;;-0.09;66.00;102630.00;5083807;28;20028;-70
2022/03/07 03:52:56;;;;;;;17.30;14.23;;;;;;;-0.14;66.10;102616.03;5107438;28;20016;-70
2022/03/07 03:55:22;;;;;;;16.63;14.40;;;;;;;-0.15;66.96;102619.50;5096385;28;20373;-70
2022/03/07 03:57:47;;;;;;;20.93;14.40;;;;;;;-0.15;67.05;102614.28;5081920;28;20028;-69
2022/03/07 04:00:15;;;;;;;18.23;14.30;;;;;;;-0.15;66.58;102624.72;5059460;28;20036;-70
2022/03/07 04:02:44;;;;;;;20.37;15.37;;;;;;;-0.29;66.11;102612.41;5103148;28;20084;-70
2022/03/07 04:05:11;;;;;;;22.10;14.83;;;;;;;-0.21;66.38;102625.53;5082694;28;20109;-70
2022/03/07 04:07:38;;;;;;;16.13;13.70;;;;;;;-0.18;65.95;102624.69;5096190;28;20514;-69
2022/03/07 04:10:04;;;;;;;20.00;15.10;;;;;;;-0.28;66.42;102623.75;5105829;28;20028;-70
2022/03/07 04:12:30;;;;;;;17.40;14.33;;;;;;;-0.22;65.64;102629.03;5107736;28;20030;-70
2022/03/07 04:14:55;;;;;;;21.67;14.87;;;;;;;-0.27;66.21;102628.97;5087684;28;20024;-70
2022/03/07 04:17:21;;;;;;;17.17;13.73;;;;;;;-0.30;65.94;102628.94;5078241;28;20024;-70
2022/03/07 04:19:49;;;;;;;17.87;15.57;;;;;;;-0.37;66.67;102624.50;5073413;28;20024;-69
2022/03/07 04:22:15;;;;;;;22.10;14.73;;;;;;;-0.36;66.42;102628.00;5097229;28;20498;-70
2022/03/07 04:24:40;;;;;;;22.00;15.27;;;;;;;-0.38;66.21;102622.78;5076165;28;20028;-70
2022/03/07 04:27:09;;;;;;;16.80;14.97;;;;;;;-0.43;67.04;102620.97;5090708;28;20032;-70
2022/03/07 04:29:36;;;;;;;22.60;14.77;;;;;;;-0.48;66.70;102624.38;5083367;28;20024;-70
2022/03/07 04:32:02;;;;;;;17.17;14.73;;;;;;;-0.55;67.15;102624.31;5092051;28;20016;-70
2022/03/07 04:34:27;;;;;;;20.03;14.53;;;;;;;-0.48;67.21;102620.91;5102076;28;20430;-69
2022/03/07 04:36:53;;;;;;;16.80;15.00;;;;;;;-0.51;67.13;102616.50;5092210;28;20115;-70
2022/03/07 04:39:19;;;;;;;16.63;14.83;;;;;;;-0.48;67.41;102619.16;5074369;28;20119;-70
2022/03/07 04:41:45;;;;;;;16.07;14.37;;;;;;;-0.49;67.36;102620.03;5097689;28;20490;-70
2022/03/07 04:44:13;;;;;;;17.63;15.00;;;;;;;-0.48;67.61;102615.66;5097557;28;20379;-70
2022/03/07 04:46:39;;;;;;;17.80;15.10;;;;;;;-0.39;66.99;102620.13;5070869;28;20043;-70
2022/03/07 04:49:09;;;;;;;21.43;15.37;;;;;;;-0.46;67.64;102619.19;5098451;28;20030;-69
2022/03/07 04:51:35;;;;;;;17.60;14.93;;;;;;;-0.46;67.64;102613.97;5103953;28;20031;-70
2022/03/07 04:54:03;;;;;;;20.93;15.40;;;;;;;-0.51;67.32;102623.47;5095102;28;20383;-70
2022/03/07 04:56:31;;;;;;;18.23;14.97;;;;;;;-0.58;67.69;102619.94;5080962;28;20541;-69
2022/03/07 04:58:56;;;;;;;18.30;14.43;;;;;;;-0.48;67.48;102621.78;5083242;28;20047;-69
2022/03/07 05:01:21;;;;;;;17.87;15.10;;;;;;;-0.49;67.38;102616.53;5080214;28;20391;-70
2022/03/07 05:03:47;;;;;;;17.43;14.97;;;;;;;-0.56;67.59;102625.16;5054353;28;20051;-69
2022/03/07 05:06:12;;;;;;;20.77;14.30;;;;;;;-0.61;66.96;102619.91;5072915;28;20043;-70
2022/03/07 05:08:38;;;;;;;15.97;14.27;;;;;;;-0.63;66.63;102626.81;5083537;28;20031;-69
2022/03/07 05:11:04;;;;;;;20.47;14.83;;;;;;;-0.64;67.46;102614.63;5074473;28;20024;-70
2022/03/07 05:13:32;;;;;;;18.17;15.23;;;;;;;-0.73;68.01;102620.63;5082381;28;20475;-69
2022/03/07 05:15:58;;;;;;;16.23;14.53;;;;;;;-0.72;66.79;102616.28;5078237;28;20110;-69
2022/03/07 05:18:24;;;;;;;20.43;15.80;;;;;;;-0.79;67.70;102612.72;5098474;28;20487;-70
2022/03/07 05:20:49;;;;;;;17.40;14.67;;;;;;;-0.88;67.82;102615.22;5077701;28;20490;-69
2022/03/07 05:23:14;;;;;;;19.53;15.23;;;;;;;-0.89;67.58;102610.81;5074884;28;20133;-69
2022/03/07 05:25:40;;;;;;;22.77;15.30;;;;;;;-0.85;67.94;102612.63;5104710;28;20114;-69
2022/03/07 05:28:07;;;;;;;18.73;14.87;;;;;;;-0.92;68.02;102613.41;5076797;28;20032;-69
2022/03/07 05:30:34;;;;;;;18.30;15.13;;;;;;;-0.90;67.52;102619.53;5093937;28;20513;-69
2022/03/07 05:32:59;;;;;;;18.57;14.33;;;;;;;-0.91;67.15;102615.19;5080913;28;20055;-69
2022/03/07 05:35:25;;;;;;;17.50;14.97;;;;;;;-0.93;67.38;102609.91;5105601;28;20019;-70
2022/03/07 05:37:50;;;;;;;17.53;14.87;;;;;;;-1.02;67.03;102617.63;5093499;28;20123;-70
2022/03/07 05:40:17;;;;;;;17.70;14.93;;;;;;;-1.01;68.18;102624.59;5103156;28;20030;-69
2022/03/07 05:42:45;;;;;;;17.77;15.33;;;;;;;-1.04;68.35;102619.34;5102500;28;20364;-70
2022/03/07 05:45:12;;;;;;;19.60;15.23;;;;;;;-1.16;68.77;102624.41;5088176;28;20570;-69
2022/03/07 05:47:38;;;;;;;18.30;15.27;;;;;;;-1.19;69.07;102621.75;5092578;28;20028;-69
2022/03/07 05:50:05;;;;;;;25.83;15.43;;;;;;;-1.21;68.96;102637.38;5083746;28;20493;-69
2022/03/07 05:52:31;;;;;;;17.83;15.73;;;;;;;-1.18;68.21;102631.31;5109997;28;20031;-69
2022/03/07 05:54:57;;;;;;;18.30;16.07;;;;;;;-1.18;68.86;102624.38;5074109;28;20051;-70
2022/03/07 05:57:23;;;;;;;20.40;16.57;;;;;;;-1.23;69.59;102628.66;5110581;28;20032;-69
2022/03/07 05:59:48;;;;;;;21.70;15.57;;;;;;;-1.22;68.85;102619.09;5110646;28;20034;-69
2022/03/07 06:02:14;;;;;;;18.93;15.90;;;;;;;-1.21;68.90;102615.63;5109904;28;20023;-69
2022/03/07 06:04:41;;;;;;;22.33;16.20;;;;;;;-1.14;69.40;102627.91;5069050;28;20055;-70
2022/03/07 06:07:07;;;;;;;20.83;16.33;;;;;;;-1.22;69.08;102633.00;5078227;28;20028;-69
2022/03/07 06:09:32;;;;;;;20.40;15.50;;;;;;;-1.22;68.33;102640.84;5091808;28;20024;-70
2022/03/07 06:11:59;;;;;;;18.27;15.93;;;;;;;-1.18;68.44;102636.53;5080925;28;20020;-69
2022/03/07 06:14:24;;;;;;;20.20;16.10;;;;;;;-1.19;68.51;102643.50;5058621;28;20073;-69
2022/03/07 06:16:50;;;;;;;19.63;16.17;;;;;;;-1.16;69.42;102651.38;5076225;28;20147;-69
2022/03/07 06:19:16;;;;;;;21.13;16.87;;;;;;;-1.29;68.71;102645.97;5093825;28;20038;-69
2022/03/07 06:21:41;;;;;;;20.43;16.27;;;;;;;-1.37;68.99;102643.22;5083105;28;20287;-69
2022/03/07 06:24:07;;;;;;;19.37;16.50;;;;;;;-1.42;68.82;102648.38;5101151;28;20413;-69
2022/03/07 06:26:32;;;;;;;24.13;17.97;;;;;;;-1.33;69.15;102652.84;5086007;28;20031;-70
2022/03/07 06:28:57;;;;;;;23.77;18.67;;;;;;;-1.38;70.12;102654.53;5095661;28;20110;-69
2022/03/07 06:31:23;;;;;;;24.87;18.83;;;;;;;-1.30;70.17;102665.94;5085828;28;20445;-70
2022/03/07 06:33:49;;;;;;;22.17;18.50;;;;;;;-1.17;70.47;102672.25;5076787;28;20462;-69
2022/03/07 06:36:14;;;;;;;23.00;18.50;;;;;;;-1.03;70.57;102657.66;5094625;28;20088;-69
2022/03/07 06:38:40;;;;;;;24.73;18.57;;;;;;;-0.95;70.07;102663.84;5103233;28;20031;-69
2022/03/07 06:41:06;;;;;;;21.33;17.53;;;;;;;-0.80;69.88;102670.16;5106004;28;20020;-70
2022/03/07 06:43:32;;;;;;;23.37;18.47;;;;;;;-0.80;69.82;102664.91;5113098;28;20028;-69
2022/03/07 06:45:58;;;;;;;22.03;17.73;;;;;;;-0.72;69.87;102668.50;5078533;28;20047;-69
2022/03/07 06:48:25;;;;;;;24.37;19.13;;;;;;;-0.71;69.48;102668.56;5104096;28;20023;-70
2022/03/07 06:50:50;;;;;;;24.23;19.03;;;;;;;-0.72;69.83;102669.38;5100658;28;20049;-69
2022/03/07 06:53:16;;;;;;;22.20;18.23;;;;;;;-0.64;68.97;102669.50;5081509;28;20546;-69
2022/03/07 06:55:42;;;;;;;22.40;17.77;;;;;;;-0.63;69.75;102671.25;5099388;28;20514;-69
2022/03/07 06:58:10;;;;;;;24.03;18.03;;;;;;;-0.55;69.44;102676.56;5094544;28;20016;-69
2022/03/07 07:00:38;;;;;;;23.37;17.00;;;;;;;-0.51;68.78;102675.75;5076524;28;20024;-69
2022/03/07 07:03:05;;;;;;;23.27;18.07;;;;;;;-0.41;68.41;102674.13;5096506;28;20110;-69
2022/03/07 07:05:32;;;;;;;20.47;17.27;;;;;;;-0.35;68.36;102679.44;5085619;28;20118;-69
2022/03/07 07:07:58;;;;;;;20.03;17.53;;;;;;;-0.36;68.66;102680.28;5113146;28;20027;-69
2022/03/07 07:10:25;;;;;;;22.83;17.47;;;;;;;-0.29;67.91;102680.38;5103942;28;20128;-69
2022/03/07 07:12:53;;;;;;;21.83;17.07;;;;;;;-0.21;68.41;102676.97;5097253;28;20031;-69
2022/03/07 07:15:19;;;;;;;24.37;17.60;;;;;;;-0.18;68.19;102659.56;5093564;28;20031;-69
2022/03/07 07:17:47;;;;;;;26.40;17.63;;;;;;;0.03;68.55;102677.25;5099779;28;20390;-69
2022/03/07 07:20:15;;;;;;;21.87;17.47;;;;;;;0.01;67.75;102680.69;5106450;28;20113;-69
2022/03/07 07:22:40;;;;;;;24.93;17.17;;;;;;;0.11;67.88;102670.31;5097574;28;20039;-69
2022/03/07 07:25:08;;;;;;;22.23;17.30;;;;;;;0.22;67.53;102675.66;5101735;28;20023;-69
2022/03/07 07:27:34;;;;;;;21.57;17.83;;;;;;;0.20;66.61;102673.03;5100295;28;20165;-69
2022/03/07 07:29:59;;;;;;;21.87;17.53;;;;;;;0.29;67.04;102671.34;5074046;28;20557;-69
2022/03/07 07:32:25;;;;;;;22.13;17.60;;;;;;;0.37;66.64;102669.69;5098633;28;20032;-69
2022/03/07 07:34:51;;;;;;;20.50;16.30;;;;;;;0.48;66.48;102670.66;5095994;28;20031;-69
2022/03/07 07:37:20;;;;;;;18.43;16.53;;;;;;;0.57;65.89;102670.72;5085305;28;20035;-70
2022/03/07 07:39:47;;;;;;;21.70;17.07;;;;;;;0.79;65.48;102671.75;5084539;28;20467;-70
2022/03/07 07:42:13;;;;;;;19.77;16.57;;;;;;;0.92;64.75;102671.88;5106553;28;20551;-69
2022/03/07 07:44:39;;;;;;;24.30;16.33;;;;;;;1.06;64.47;102678.94;5085313;28;20111;-69
2022/03/07 07:47:05;;;;;;;21.83;16.53;;;;;;;1.19;63.97;102672.00;5077957;28;20128;-69
2022/03/07 07:49:31;;;;;;;24.20;16.30;;;;;;;1.29;63.67;102673.78;5066048;28;20111;-69
2022/03/07 07:51:57;;;;;;;21.37;17.13;;;;;;;1.38;63.99;102682.56;5091609;28;20024;-69
2022/03/07 07:54:23;;;;;;;20.60;15.90;;;;;;;1.42;62.61;102679.13;5096265;28;20054;-69
2022/03/07 07:56:49;;;;;;;24.80;15.70;;;;;;;1.52;61.88;102676.53;5094247;28;20075;-69
2022/03/07 07:59:15;;;;;;;19.63;16.07;;;;;;;1.66;61.42;102691.44;5081950;28;20038;-69
2022/03/07 08:01:40;;;;;;;18.77;16.10;;;;;;;1.81;60.97;102684.50;5095350;28;20055;-69
2022/03/07 08:04:06;;;;;;;22.97;16.37;;;;;;;2.00;60.40;102680.19;5106470;28;20019;-69
2022/03/07 08:06:32;;;;;;;22.35;15.55;;;;;;;2.05;59.85;102669.69;5111804;28;20386;-69
2022/03/07 08:08:58;;;;;;;17.80;15.43;;;;;;;2.14;58.12;102684.56;5080349;28;20024;-69
2022/03/07 08:11:24;;;;;;;20.05;15.30;;;;;;;2.21;58.82;102687.22;5097620;28;20370;-69
2022/03/07 08:13:51;;;;;;;17.92;14.35;;;;;;;2.39;58.47;102685.50;5092042;28;20028;-69
2022/03/07 08:16:18;;;;;;;17.67;15.23;;;;;;;2.56;58.06;102690.72;5073710;28;20026;-69
2022/03/07 08:18:44;;;;;;;20.85;14.18;;;;;;;2.72;56.64;102688.09;5086065;28;20138;-70
2022/03/07 08:21:09;;;;;;;20.95;14.43;;;;;;;2.81;55.68;102692.47;5104916;28;20099;-70
2022/03/07 08:23:35;;;;;;;16.50;13.38;;;;;;;2.78;55.57;102681.97;5080141;28;20036;-70
2022/03/07 08:26:00;;;;;;;16.80;14.82;;;;;;;2.90;55.52;102679.31;5105379;28;20087;-70
2022/03/07 08:28:27;;;;;;;15.63;13.50;;;;;;;2.94;55.47;102688.97;5111073;28;20118;-70
2022/03/07 08:30:52;;;;;;;17.20;13.20;;;;;;;3.14;54.73;102680.13;5090506;28;20405;-70
2022/03/07 08:33:18;;;;;;;15.73;14.07;;;;;;;3.25;55.17;102681.00;5085972;28;20028;-70
2022/03/07 08:35:43;;;;;;;15.65;13.95;;;;;;;3.21;53.73;102684.53;5079996;28;20031;-70
2022/03/07 08:38:09;;;;;;;16.13;14.05;;;;;;;3.38;53.40;102684.44;5097096;28;20036;-70
2022/03/07 08:40:34;;;;;;;15.07;12.95;;;;;;;3.40;52.79;102685.31;5075509;28;20023;-69
2022/03/07 08:42:59;;;;;;;18.83;13.02;;;;;;;3.42;52.88;102681.81;5095744;28;20055;-70
2022/03/07 08:45:26;;;;;;;15.30;12.02;;;;;;;3.45;52.34;102685.31;5095882;28;20114;-69
2022/03/07 08:47:52;;;;;;;17.75;13.43;;;;;;;3.45;52.50;102667.78;5079296;28;20127;-70
2022/03/07 08:50:18;;;;;;;14.90;12.98;;;;;;;3.65;51.83;102678.22;5076722;28;20051;-69
2022/03/07 08:52:45;;;;;;;15.98;12.60;;;;;;;3.80;51.38;102687.78;5092345;28;20072;-69
2022/03/07 08:55:11;;;;;;;14.98;11.75;;;;;;;3.98;51.11;102682.41;5098981;28;20051;-69
2022/03/07 08:57:37;;;;;;;16.48;12.70;;;;;;;4.00;51.16;102685.03;5082521;28;20028;-69
2022/03/07 09:00:06;;;;;;;13.25;11.13;;;;;;;4.08;50.19;102681.47;5087053;28;20038;-70
2022/03/07 09:02:31;;;;;;;13.52;10.60;;;;;;;4.16;50.28;102676.16;5086613;28;20035;-69
2022/03/07 09:04:57;;;;;;;14.30;11.60;;;;;;;4.28;48.96;102675.19;5079655;28;20036;-70
2022/03/07 09:07:22;;;;;;;12.95;11.05;;;;;;;4.33;49.14;102674.28;5081087;28;20020;-70
2022/03/07 09:09:47;;;;;;;14.88;10.93;;;;;;;4.27;48.85;102670.81;5080208;28;20032;-70
2022/03/07 09:12:13;;;;;;;13.27;11.60;;;;;;;4.57;49.45;102671.47;5105258;28;20047;-70
2022/03/07 09:14:39;;;;;;;11.50;10.30;;;;;;;4.71;47.72;102669.59;5085557;28;20106;-69
2022/03/07 09:17:05;;;;;;;13.48;11.05;;;;;;;4.81;47.48;102665.09;5091581;28;20031;-70
2022/03/07 09:19:32;;;;;;;13.82;9.95;;;;;;;4.86;46.30;102665.94;5092376;28;20027;-70
2022/03/07 09:21:57;;;;;;;18.02;10.07;;;;;;;4.71;46.51;102667.81;5056269;28;20371;-69
2022/03/07 09:24:23;;;;;;;10.82;9.73;;;;;;;4.85;46.36;102666.78;5097254;28;20039;-70
2022/03/07 09:26:49;;;;;;;11.18;10.07;;;;;;;4.89;45.67;102677.31;5076699;28;20020;-69
2022/03/07 09:29:15;;;;;;;10.80;9.73;;;;;;;4.96;46.22;102659.66;5102149;28;20031;-69
2022/03/07 09:31:41;;;;;;;11.15;9.80;;;;;;;5.11;44.91;102663.88;5074316;28;20622;-69
2022/03/07 09:34:06;;;;;;;10.45;9.30;;;;;;;4.99;44.68;102656.97;5098803;28;20056;-69
2022/03/07 09:36:32;;;;;;;10.63;9.52;;;;;;;5.28;44.98;102654.03;5077289;28;20031;-70
2022/03/07 09:38:58;;;;;;;10.68;9.43;;;;;;;5.10;44.40;102648.97;5071201;28;20036;-70
2022/03/07 09:41:27;;;;;;;10.90;9.88;;;;;;;5.26;44.53;102650.53;5092105;28;20036;-70
2022/03/07 09:43:53;;;;;;;13.05;9.07;;;;;;;5.53;43.90;102653.72;5099926;28;20032;-70
2022/03/07 09:46:18;;;;;;;9.95;8.95;;;;;;;5.71;44.07;102650.84;5089580;28;20030;-70
2022/03/07 09:48:45;;;;;;;8.68;7.78;;;;;;;5.94;42.45;102649.66;5075403;28;20027;-70
2022/03/07 09:51:11;;;;;;;8.68;7.85;;;;;;;6.05;42.14;102659.16;5091157;28;20035;-70
2022/03/07 09:53:36;;;;;;;10.60;8.18;;;;;;;5.96;42.20;102656.66;5093492;28;20024;-70
2022/03/07 09:56:02;;;;;;;8.27;7.47;;;;;;;6.10;42.55;102651.19;5078838;28;20445;-70
2022/03/07 09:58:28;;;;;;;8.82;7.30;;;;;;;6.21;41.75;102651.91;5083194;28;20055;-70
2022/03/07 10:01:05;;;;;;;7.90;7.10;;;;;;;6.26;41.88;102635.97;5079997;28;20483;-70
2022/03/07 10:03:31;;;;;;;8.40;7.60;;;;;;;6.53;41.32;102631.97;5101228;28;20031;-70
2022/03/07 10:05:57;;;;;;;9.18;7.18;;;;;;;6.70;40.84;102631.69;5081356;28;21303;-70
2022/03/07 10:08:28;;;;;;;10.98;6.88;;;;;;;6.54;40.78;102637.25;5088900;28;20096;-69
2022/03/07 10:10:57;;;;;;;10.05;7.68;;;;;;;6.58;40.18;102628.34;5098215;28;20076;-70
2022/03/07 10:13:24;;;;;;;9.05;6.88;;;;;;;6.76;40.56;102613.06;5105958;28;20240;-70
2022/03/07 10:16:03;;;;;;;7.93;6.50;;;;;;;6.81;40.32;102624.44;5090625;28;20081;-70
2022/03/07 10:18:30;;;;;;;7.10;6.40;;;;;;;6.78;40.45;102625.34;5097184;28;20027;-69
2022/03/07 10:20:59;;;;;;;9.80;6.97;;;;;;;6.79;40.22;102623.56;5094397;28;20024;-70
2022/03/07 10:23:27;;;;;;;6.95;6.32;;;;;;;6.90;39.64;102608.38;5094968;28;20023;-70
2022/03/07 10:26:08;;;;;;;6.70;6.10;;;;;;;7.18;39.69;102626.38;5096352;28;20082;-70
2022/03/07 10:28:35;;;;;;;6.40;5.78;;;;;;;7.73;38.56;102618.13;5088064;28;20039;-70
2022/03/07 10:31:19;;;;;;;6.40;5.80;;;;;;;7.88;38.42;102618.66;5085049;28;20421;-70
2022/03/07 10:33:46;;;;;;;9.60;5.78;;;;;;;8.20;37.26;102617.88;5106655;28;20042;-70
2022/03/07 10:36:12;;;;;;;7.82;5.53;;;;;;;8.29;36.82;102609.69;5101015;28;20049;-71
2022/03/07 10:38:41;;;;;;;6.55;5.80;;;;;;;8.10;36.92;102619.91;5109756;28;20047;-70
2022/03/07 10:41:07;;;;;;;6.85;5.60;;;;;;;8.22;37.41;102610.78;5084584;28;20470;-70
2022/03/07 10:43:33;;;;;;;8.45;6.05;;;;;;;8.33;37.58;102607.88;5107166;28;20032;-70
2022/03/07 10:46:03;;;;;;;7.40;5.55;;;;;;;8.58;36.88;102608.97;5072247;28;20031;-70
2022/03/07 10:48:41;;;;;;;8.50;5.57;;;;;;;8.77;36.68;102605.88;5105683;28;20396;-70
2022/03/07 10:51:16;;;;;;;5.97;5.43;;;;;;;8.93;36.14;102593.03;5102422;28;20077;-70
2022/03/07 10:53:41;;;;;;;7.20;5.75;;;;;;;9.28;35.27;102589.38;5107522;28;20271;-70
2022/03/07 10:56:08;;;;;;;8.85;5.32;;;;;;;9.29;35.34;102581.38;5095287;28;20102;-70
2022/03/07 10:58:43;;;;;;;8.73;5.80;;;;;;;9.29;35.41;102575.16;5078279;28;20042;-71
2022/03/07 11:01:11;;;;;;;7.57;5.45;;;;;;;9.19;35.08;102573.72;5084639;28;20028;-71
2022/03/07 11:03:38;;;;;;;5.53;4.78;;;;;;;9.15;35.04;102569.38;5079760;28;20467;-71
2022/03/07 11:06:04;;;;;;;8.07;5.70;;;;;;;9.05;35.49;102561.69;5112625;28;20031;-71
2022/03/07 11:08:30;;;;;;;7.43;5.60;;;;;;;9.40;35.29;102570.41;5095910;28;20338;-71
2022/03/07 11:10:58;;;;;;;8.90;5.75;;;;;;;10.06;34.18;102559.44;5093113;28;20022;-71
2022/03/07 11:13:29;;;;;;;6.05;5.45;;;;;;;10.50;33.28;102552.66;5110360;28;20027;-71